sensor_id;sensor_type;location;lat;lon;timestamp;temperature;humidity
1165;DHT22;571;50.930;6.926;2023-04-21T03:01:28;10.10;99.90
1165;DHT22;571;50.930;6.926;2023-04-21T03:30:12;9.60;99.90
1165;DHT22;571;50.930;6.926;2023-04-21T04:07:47;9.40;99.90
1165;DHT22;571;50.930;6.926;2023-04-21T04:11:29;9.50;99.90
1165;DHT22;571;50.930;6.926;2023-04-21T05:50:38;9.50;99.90
1165;DHT22;571;50.930;6.926;2023-04-21T05:54:24;9.40;99.90
1165;DHT22;571;50.930;6.926;2023-04-21T05:57:23;9.40;99.90
1165;DHT22;571;50.930;6.926;2023-04-21T10:17:46;15.50;95.00
1165;DHT22;571;50.930;6.926;2023-04-21T10:21:00;15.50;94.80
1165;DHT22;571;50.930;6.926;2023-04-21T10:23:44;15.40;94.70
1165;DHT22;571;50.930;6.926;2023-04-21T10:30:27;15.70;94.20
1165;DHT22;571;50.930;6.926;2023-04-21T10:43:49;15.70;93.70
1165;DHT22;571;50.930;6.926;2023-04-21T10:46:47;15.90;93.50
1165;DHT22;571;50.930;6.926;2023-04-21T10:52:34;16.00;92.80
1165;DHT22;571;50.930;6.926;2023-04-21T11:08:42;16.80;92.30
1165;DHT22;571;50.930;6.926;2023-04-21T11:11:53;17.20;91.30
1165;DHT22;571;50.930;6.926;2023-04-21T11:14:53;17.50;90.80
1165;DHT22;571;50.930;6.926;2023-04-21T11:21:40;18.30;87.50
1165;DHT22;571;50.930;6.926;2023-04-21T11:28:28;18.90;82.00
1165;DHT22;571;50.930;6.926;2023-04-21T11:31:26;19.30;80.00
1165;DHT22;571;50.930;6.926;2023-04-21T12:01:53;21.80;67.00
1165;DHT22;571;50.930;6.926;2023-04-21T12:07:54;22.10;62.10
1165;DHT22;571;50.930;6.926;2023-04-21T12:10:33;21.90;63.80
1165;DHT22;571;50.930;6.926;2023-04-21T12:13:43;22.00;64.20
1165;DHT22;571;50.930;6.926;2023-04-21T12:20:44;22.40;64.50
1165;DHT22;571;50.930;6.926;2023-04-21T12:24:08;22.80;61.40
1165;DHT22;571;50.930;6.926;2023-04-21T12:27:21;23.10;58.00
1165;DHT22;571;50.930;6.926;2023-04-21T12:34:19;23.60;58.70
1165;DHT22;571;50.930;6.926;2023-04-21T13:11:18;24.30;57.20
1165;DHT22;571;50.930;6.926;2023-04-21T13:14:38;24.70;56.10
1165;DHT22;571;50.930;6.926;2023-04-21T13:24:46;25.60;53.30
1165;DHT22;571;50.930;6.926;2023-04-21T13:45:08;25.30;51.80
1165;DHT22;571;50.930;6.926;2023-04-21T14:19:10;25.90;47.60
1165;DHT22;571;50.930;6.926;2023-04-21T14:22:20;26.40;48.40
1165;DHT22;571;50.930;6.926;2023-04-21T14:25:24;26.90;47.50
1165;DHT22;571;50.930;6.926;2023-04-21T14:35:06;28.20;42.70
1165;DHT22;571;50.930;6.926;2023-04-21T14:38:05;28.70;42.60
1165;DHT22;571;50.930;6.926;2023-04-21T14:40:58;29.00;40.80
1165;DHT22;571;50.930;6.926;2023-04-21T14:43:41;29.30;40.80
1165;DHT22;571;50.930;6.926;2023-04-21T14:46:58;29.40;40.30
1165;DHT22;571;50.930;6.926;2023-04-21T14:52:47;28.80;38.70
1165;DHT22;571;50.930;6.926;2023-04-21T14:55:48;28.50;39.00
1165;DHT22;571;50.930;6.926;2023-04-21T14:58:40;28.80;41.40
1165;DHT22;571;50.930;6.926;2023-04-21T15:01:36;29.30;39.10
1165;DHT22;571;50.930;6.926;2023-04-21T15:04:25;29.70;38.90
1165;DHT22;571;50.930;6.926;2023-04-21T15:10:59;30.00;37.80
1165;DHT22;571;50.930;6.926;2023-04-21T15:13:40;30.00;37.40
1165;DHT22;571;50.930;6.926;2023-04-21T15:20:27;29.90;37.40
1165;DHT22;571;50.930;6.926;2023-04-21T15:26:15;30.10;36.40
1165;DHT22;571;50.930;6.926;2023-04-21T15:28:58;30.50;37.70
1165;DHT22;571;50.930;6.926;2023-04-21T15:32:00;30.80;36.20
1165;DHT22;571;50.930;6.926;2023-04-21T15:37:33;31.40;35.90
1165;DHT22;571;50.930;6.926;2023-04-21T15:40:29;31.80;34.90
1165;DHT22;571;50.930;6.926;2023-04-21T15:45:51;31.90;33.80
1165;DHT22;571;50.930;6.926;2023-04-21T15:46:25;31.80;34.50
1165;DHT22;571;50.930;6.926;2023-04-21T15:49:06;31.80;33.60
1165;DHT22;571;50.930;6.926;2023-04-21T15:54:46;31.30;32.40
1165;DHT22;571;50.930;6.926;2023-04-21T15:57:56;30.70;33.10
1165;DHT22;571;50.930;6.926;2023-04-21T16:00:49;29.70;33.70
1165;DHT22;571;50.930;6.926;2023-04-21T16:03:34;28.80;34.70
1165;DHT22;571;50.930;6.926;2023-04-21T16:06:27;28.40;34.40
1165;DHT22;571;50.930;6.926;2023-04-21T16:09:13;27.80;35.00
1165;DHT22;571;50.930;6.926;2023-04-21T16:11:46;27.00;36.50
1165;DHT22;571;50.930;6.926;2023-04-21T16:14:36;26.30;37.30
1165;DHT22;571;50.930;6.926;2023-04-21T16:17:23;25.60;38.50
1165;DHT22;571;50.930;6.926;2023-04-21T16:19:53;25.20;38.90
1165;DHT22;571;50.930;6.926;2023-04-21T16:23:05;24.70;39.60
1165;DHT22;571;50.930;6.926;2023-04-21T16:55:51;22.40;43.60
1165;DHT22;571;50.930;6.926;2023-04-21T16:58:33;22.20;44.20
1165;DHT22;571;50.930;6.926;2023-04-21T17:05:26;22.00;45.10
1165;DHT22;571;50.930;6.926;2023-04-21T17:08:16;21.80;46.00
1165;DHT22;571;50.930;6.926;2023-04-21T17:11:28;21.90;46.90
1165;DHT22;571;50.930;6.926;2023-04-21T17:14:01;21.70;47.50
1165;DHT22;571;50.930;6.926;2023-04-21T17:16:34;21.50;47.70
1165;DHT22;571;50.930;6.926;2023-04-21T17:19:18;21.40;48.30
1165;DHT22;571;50.930;6.926;2023-04-21T17:22:00;21.40;48.60
1165;DHT22;571;50.930;6.926;2023-04-21T17:24:43;20.90;48.60
1165;DHT22;571;50.930;6.926;2023-04-21T17:27:20;20.30;48.30
1165;DHT22;571;50.930;6.926;2023-04-21T17:29:49;21.00;49.10
1165;DHT22;571;50.930;6.926;2023-04-21T17:32:25;20.90;49.80
1165;DHT22;571;50.930;6.926;2023-04-21T17:38:29;20.80;50.10
1165;DHT22;571;50.930;6.926;2023-04-21T17:41:39;20.70;51.00
1165;DHT22;571;50.930;6.926;2023-04-21T17:53:53;20.40;52.40
1165;DHT22;571;50.930;6.926;2023-04-21T17:56:42;20.30;52.40
1165;DHT22;571;50.930;6.926;2023-04-21T17:59:46;20.30;53.20
1165;DHT22;571;50.930;6.926;2023-04-21T18:03:01;20.10;53.30
1165;DHT22;571;50.930;6.926;2023-04-21T18:35:10;19.50;57.40
1165;DHT22;571;50.930;6.926;2023-04-21T18:51:56;19.20;57.90
1165;DHT22;571;50.930;6.926;2023-04-21T18:55:09;19.10;58.40
1165;DHT22;571;50.930;6.926;2023-04-21T18:58:44;18.70;60.00
1165;DHT22;571;50.930;6.926;2023-04-21T19:01:50;18.10;66.00
1165;DHT22;571;50.930;6.926;2023-04-21T19:05:09;17.40;74.80
1165;DHT22;571;50.930;6.926;2023-04-21T19:08:08;16.90;81.10
1165;DHT22;571;50.930;6.926;2023-04-21T19:11:19;16.20;91.20
1165;DHT22;571;50.930;6.926;2023-04-21T19:14:15;14.60;93.90
1165;DHT22;571;50.930;6.926;2023-04-21T19:17:14;15.00;96.20
1165;DHT22;571;50.930;6.926;2023-04-21T19:20:42;14.90;96.80
1165;DHT22;571;50.930;6.926;2023-04-21T19:24:10;16.00;98.20
1165;DHT22;571;50.930;6.926;2023-04-21T19:26:58;15.20;98.40
1165;DHT22;571;50.930;6.926;2023-04-21T19:30:39;14.60;99.70
1165;DHT22;571;50.930;6.926;2023-04-21T19:37:02;16.10;99.90
1165;DHT22;571;50.930;6.926;2023-04-21T19:46:58;15.50;99.90
1165;DHT22;571;50.930;6.926;2023-04-21T19:51:25;15.10;99.70
1165;DHT22;571;50.930;6.926;2023-04-21T20:00:23;16.40;99.90
1165;DHT22;571;50.930;6.926;2023-04-21T20:03:42;15.20;99.90
1165;DHT22;571;50.930;6.926;2023-04-21T20:16:38;15.20;99.90
1165;DHT22;571;50.930;6.926;2023-04-21T20:20:03;14.90;99.90
1165;DHT22;571;50.930;6.926;2023-04-21T20:29:03;15.00;99.90
1165;DHT22;571;50.930;6.926;2023-04-21T20:32:12;15.00;99.90
1165;DHT22;571;50.930;6.926;2023-04-21T20:38:34;16.10;99.90
1165;DHT22;571;50.930;6.926;2023-04-21T20:45:24;14.90;99.90
1165;DHT22;571;50.930;6.926;2023-04-21T20:52:49;14.80;99.90
1165;DHT22;571;50.930;6.926;2023-04-21T20:57:43;14.80;99.90
1165;DHT22;571;50.930;6.926;2023-04-21T20:58:21;14.70;99.90
1165;DHT22;571;50.930;6.926;2023-04-21T21:01:17;14.80;99.90
1165;DHT22;571;50.930;6.926;2023-04-21T21:07:17;15.40;99.90
1165;DHT22;571;50.930;6.926;2023-04-21T21:14:13;14.30;99.90
1165;DHT22;571;50.930;6.926;2023-04-21T21:27:34;14.40;99.90
1165;DHT22;571;50.930;6.926;2023-04-21T21:30:05;14.40;99.90
1165;DHT22;571;50.930;6.926;2023-04-21T21:32:38;14.20;99.90
1165;DHT22;571;50.930;6.926;2023-04-21T21:35:24;14.30;99.90
1165;DHT22;571;50.930;6.926;2023-04-21T21:38:04;14.20;99.90
1165;DHT22;571;50.930;6.926;2023-04-21T21:40:35;14.10;99.90
1165;DHT22;571;50.930;6.926;2023-04-21T21:43:22;14.20;99.90
1165;DHT22;571;50.930;6.926;2023-04-21T21:49:16;15.60;99.90
1165;DHT22;571;50.930;6.926;2023-04-21T21:51:55;14.10;99.90
1165;DHT22;571;50.930;6.926;2023-04-21T21:57:20;13.70;99.90
1165;DHT22;571;50.930;6.926;2023-04-21T21:59:51;14.50;99.90
1165;DHT22;571;50.930;6.926;2023-04-21T22:17:54;13.70;99.90
1165;DHT22;571;50.930;6.926;2023-04-21T22:20:24;14.20;99.90
1165;DHT22;571;50.930;6.926;2023-04-21T22:22:52;13.60;99.90
1165;DHT22;571;50.930;6.926;2023-04-21T22:25:22;13.70;99.90
1165;DHT22;571;50.930;6.926;2023-04-21T22:27:51;14.10;99.90
1165;DHT22;571;50.930;6.926;2023-04-21T22:30:22;13.70;99.90
1165;DHT22;571;50.930;6.926;2023-04-21T22:32:58;14.00;99.90
1165;DHT22;571;50.930;6.926;2023-04-21T22:35:27;14.20;99.90
1165;DHT22;571;50.930;6.926;2023-04-21T22:41:00;13.90;99.90
1165;DHT22;571;50.930;6.926;2023-04-21T22:43:27;13.10;99.90
1165;DHT22;571;50.930;6.926;2023-04-21T22:45:59;13.40;99.90
1165;DHT22;571;50.930;6.926;2023-04-21T22:48:29;12.60;99.90
1165;DHT22;571;50.930;6.926;2023-04-21T22:50:57;13.30;99.90
1165;DHT22;571;50.930;6.926;2023-04-21T22:53:27;13.30;99.90
1165;DHT22;571;50.930;6.926;2023-04-21T22:55:56;12.60;99.90
1165;DHT22;571;50.930;6.926;2023-04-21T22:58:24;14.10;99.90
1165;DHT22;571;50.930;6.926;2023-04-21T23:00:51;13.20;99.90
1165;DHT22;571;50.930;6.926;2023-04-21T23:03:18;13.60;99.90
1165;DHT22;571;50.930;6.926;2023-04-21T23:06:02;13.20;99.90
1165;DHT22;571;50.930;6.926;2023-04-21T23:08:30;11.90;99.90
1165;DHT22;571;50.930;6.926;2023-04-21T23:10:57;13.10;99.90
1165;DHT22;571;50.930;6.926;2023-04-21T23:13:24;13.10;99.90
1165;DHT22;571;50.930;6.926;2023-04-21T23:15:52;13.00;99.90
1165;DHT22;571;50.930;6.926;2023-04-21T23:18:19;13.00;99.90
1165;DHT22;571;50.930;6.926;2023-04-21T23:20:47;13.00;99.90
1165;DHT22;571;50.930;6.926;2023-04-21T23:23:17;13.00;99.90
1165;DHT22;571;50.930;6.926;2023-04-21T23:25:44;13.00;99.90
1165;DHT22;571;50.930;6.926;2023-04-21T23:28:11;13.00;99.90
1165;DHT22;571;50.930;6.926;2023-04-21T23:30:38;13.00;99.90
1165;DHT22;571;50.930;6.926;2023-04-21T23:33:13;13.00;99.90
1165;DHT22;571;50.930;6.926;2023-04-21T23:35:47;13.00;99.90
1165;DHT22;571;50.930;6.926;2023-04-21T23:38:35;13.00;99.90
1165;DHT22;571;50.930;6.926;2023-04-21T23:41:09;12.50;99.90
1165;DHT22;571;50.930;6.926;2023-04-21T23:43:40;12.90;99.90
1165;DHT22;571;50.930;6.926;2023-04-21T23:46:16;13.00;99.90
1165;DHT22;571;50.930;6.926;2023-04-21T23:48:48;12.90;99.90
1165;DHT22;571;50.930;6.926;2023-04-21T23:51:31;13.00;99.90
1165;DHT22;571;50.930;6.926;2023-04-21T23:54:02;13.00;99.90
1165;DHT22;571;50.930;6.926;2023-04-21T23:56:39;12.90;99.90
1165;DHT22;571;50.930;6.926;2023-04-21T23:59:14;13.00;99.90
